Time;durP1;ratioP1;P1;durP2;ratioP2;P2;SDS_P1;SDS_P2;PMS_P1;PMS_P2;Temp;Humidity;BMP_temperature;BMP_pressure;BME280_temperature;BME280_humidity;BME280_pressure;Samples;Min_cycle;Max_cycle;Signal;HPM_P1;HPM_P2
2021/03/05 00:03:54;;;;;;;23.52;14.98;;;;;;;5.83;73.03;100197.14;2791846;84;21137;-62
2021/03/05 00:07:57;;;;;;;18.52;13.30;;;;;;;5.79;73.24;100199.61;2784799;84;21201;-62
2021/03/05 00:12:00;;;;;;;23.40;14.87;;;;;;;5.74;73.58;100193.78;2773007;85;21643;-60
2021/03/05 00:16:04;;;;;;;27.67;15.53;;;;;;;5.74;73.52;100200.38;2777494;84;21204;-63
2021/03/05 00:20:11;;;;;;;24.72;15.85;;;;;;;5.71;73.97;100205.86;2808647;84;21185;-63
2021/03/05 00:24:14;;;;;;;26.42;17.92;;;;;;;5.72;74.44;100206.23;2802843;84;21182;-60
2021/03/05 00:28:19;;;;;;;23.10;14.18;;;;;;;5.69;74.69;100206.41;2805643;84;21128;-64
2021/03/05 00:32:24;;;;;;;23.02;13.98;;;;;;;5.68;75.16;100204.70;2809928;84;21955;-61
2021/03/05 00:36:27;;;;;;;22.95;14.23;;;;;;;5.72;74.77;100208.88;2761564;86;21229;-62
2021/03/05 00:40:32;;;;;;;25.77;14.63;;;;;;;5.69;74.81;100201.12;2772824;85;21177;-62
2021/03/05 00:44:35;;;;;;;21.20;14.87;;;;;;;5.64;75.34;100199.25;2792014;84;21145;-63
2021/03/05 00:48:40;;;;;;;22.62;15.68;;;;;;;5.59;75.29;100210.09;2819536;84;21635;-64
2021/03/05 00:52:45;;;;;;;19.87;12.75;;;;;;;5.56;75.86;100207.19;2771839;84;21181;-63
2021/03/05 00:56:50;;;;;;;22.82;15.55;;;;;;;5.50;76.20;100212.86;2819833;84;21189;-63
2021/03/05 01:00:53;;;;;;;28.30;15.10;;;;;;;5.46;76.66;100219.73;2819855;84;21197;-62
2021/03/05 01:04:57;;;;;;;22.77;15.58;;;;;;;5.46;76.92;100214.45;2808152;84;21125;-62
2021/03/05 01:09:00;;;;;;;24.87;16.10;;;;;;;5.43;77.51;100215.47;2797927;84;21233;-63
2021/03/05 01:13:04;;;;;;;25.35;16.95;;;;;;;5.41;77.86;100215.59;2807938;84;21177;-62
2021/03/05 01:17:07;;;;;;;22.75;15.88;;;;;;;5.39;78.12;100227.16;2819568;84;21627;-61
2021/03/05 01:21:11;;;;;;;24.15;17.05;;;;;;;5.40;78.23;100223.58;2794135;84;21587;-60
2021/03/05 01:25:19;;;;;;;28.17;15.70;;;;;;;5.37;78.57;100220.65;2750669;85;21161;-62
2021/03/05 01:29:21;;;;;;;21.70;13.93;;;;;;;5.33;78.86;100216.51;2759068;85;21592;-60
2021/03/05 01:33:24;;;;;;;28.00;17.35;;;;;;;5.29;79.16;100221.11;2724450;86;21221;-62
2021/03/05 01:37:28;;;;;;;25.72;15.63;;;;;;;5.27;79.47;100229.59;2768719;85;21185;-62
2021/03/05 01:41:34;;;;;;;25.92;16.82;;;;;;;5.32;79.48;100221.90;2772585;85;21643;-62
2021/03/05 01:45:40;;;;;;;24.65;15.35;;;;;;;5.31;79.51;100224.16;2749107;85;21174;-62
2021/03/05 01:49:47;;;;;;;22.07;15.10;;;;;;;5.31;80.10;100224.16;2737263;85;22191;-60
2021/03/05 01:54:13;;;;;;;23.15;14.38;;;;;;;5.34;80.10;100217.38;2753722;84;21164;-61
2021/03/05 01:58:16;;;;;;;26.17;17.35;;;;;;;5.38;80.16;100212.28;2828924;83;21613;-60
2021/03/05 02:02:18;;;;;;;28.40;17.62;;;;;;;5.33;80.07;100217.00;2840346;83;21154;-59
2021/03/05 02:06:23;;;;;;;28.25;16.48;;;;;;;5.29;80.19;100218.97;2831261;83;21138;-60
2021/03/05 02:10:26;;;;;;;22.93;16.02;;;;;;;5.27;80.48;100215.09;2818581;83;21169;-61
2021/03/05 02:14:29;;;;;;;24.82;18.98;;;;;;;5.24;80.74;100219.72;2824382;84;21157;-62
2021/03/05 02:18:44;;;;;;;23.20;18.52;;;;;;;5.21;81.06;100226.02;2798504;84;21169;-61
2021/03/05 02:23:15;;;;;;;23.50;15.80;;;;;;;5.24;81.34;100227.15;2804694;84;21191;-59
2021/03/05 02:27:46;;;;;;;27.35;18.12;;;;;;;5.23;81.25;100229.41;2824464;84;21603;-60
2021/03/05 02:31:54;;;;;;;25.62;17.23;;;;;;;5.23;81.30;100232.05;2823742;84;21156;-59
2021/03/05 02:35:58;;;;;;;23.57;16.48;;;;;;;5.27;81.49;100236.19;2824792;84;21175;-61
2021/03/05 02:40:31;;;;;;;30.60;19.12;;;;;;;5.30;81.28;100236.48;2832600;84;21164;-61
2021/03/05 02:44:43;;;;;;;24.02;14.45;;;;;;;5.32;81.57;100232.45;2826130;82;21662;-60
2021/03/05 02:48:47;;;;;;;26.45;18.87;;;;;;;5.32;81.39;100232.45;2781692;85;21141;-61
2021/03/05 02:52:54;;;;;;;29.72;19.32;;;;;;;5.31;81.51;100237.34;2805006;84;21186;-59
2021/03/05 02:56:58;;;;;;;;;;;;;;;5.23;81.41;100241.77;2784299;85;21190;-59
2021/03/05 03:01:05;;;;;;;27.17;16.40;;;;;;;5.20;81.66;100246.74;2781130;85;20191;-61
2021/03/05 03:05:12;;;;;;;31.50;20.30;;;;;;;5.19;81.73;100246.36;2802214;84;21170;-61
2021/03/05 03:09:18;;;;;;;34.38;19.35;;;;;;;5.16;81.84;100259.73;2776415;85;21717;-61
2021/03/05 03:13:21;;;;;;;24.98;17.23;;;;;;;5.15;82.05;100256.72;2778011;85;21173;-60
2021/03/05 03:17:27;;;;;;;26.37;17.42;;;;;;;5.17;82.09;100260.11;2777944;85;21141;-61
2021/03/05 03:21:31;;;;;;;30.52;17.50;;;;;;;5.22;81.95;100258.05;2773803;85;21151;-61
2021/03/05 03:25:34;;;;;;;29.32;17.62;;;;;;;5.17;81.79;100265.84;2767615;86;21221;-61
2021/03/05 03:29:41;;;;;;;25.08;18.17;;;;;;;5.17;82.03;100268.03;2767884;86;21182;-62
2021/03/05 03:33:43;;;;;;;36.48;21.73;;;;;;;5.14;81.94;100267.73;2768020;86;21207;-61
2021/03/05 03:37:48;;;;;;;32.67;19.30;;;;;;;5.09;82.08;100270.25;2767798;86;21561;-61
2021/03/05 03:41:51;;;;;;;33.02;18.57;;;;;;;5.10;82.29;100269.31;2767620;86;21187;-60
2021/03/05 03:45:55;;;;;;;29.60;18.95;;;;;;;5.00;82.18;100279.55;2767682;86;21673;-61
2021/03/05 03:50:01;;;;;;;22.60;14.40;;;;;;;4.96;82.31;100288.13;2767820;86;21143;-60
2021/03/05 03:54:06;;;;;;;21.20;14.30;;;;;;;4.84;82.17;100300.24;2767920;86;21195;-60
2021/03/05 03:58:12;;;;;;;20.77;12.50;;;;;;;4.72;82.18;100307.52;2767672;86;21179;-60
2021/03/05 04:02:18;;;;;;;15.10;10.53;;;;;;;4.52;82.07;100320.49;2777359;85;22140;-59
2021/03/05 04:06:25;;;;;;;16.70;9.70;;;;;;;4.28;82.35;100316.98;2778667;85;21197;-61
2021/03/05 04:10:30;;;;;;;15.90;11.18;;;;;;;4.05;82.50;100320.41;2778053;85;21197;-62
2021/03/05 04:14:35;;;;;;;16.57;9.33;;;;;;;3.86;82.93;100333.23;2778020;85;21145;-59
2021/03/05 04:18:40;;;;;;;13.45;10.88;;;;;;;3.73;83.61;100338.75;2778909;85;21612;-59
2021/03/05 04:22:46;;;;;;;22.50;14.53;;;;;;;3.67;84.01;100355.73;2777481;85;21157;-59
2021/03/05 04:26:48;;;;;;;18.10;10.85;;;;;;;3.65;84.21;100364.62;2778258;85;21640;-60
2021/03/05 04:30:51;;;;;;;21.73;12.63;;;;;;;3.66;84.60;100361.05;2778680;85;21138;-59
2021/03/05 04:34:55;;;;;;;19.65;14.75;;;;;;;3.67;85.01;100364.07;2778636;85;21182;-59
2021/03/05 04:39:00;;;;;;;18.85;13.10;;;;;;;3.67;84.91;100367.56;2778672;85;21430;-61
2021/03/05 04:43:04;;;;;;;18.02;11.63;;;;;;;3.65;85.07;100378.64;2773538;84;21616;-59
2021/03/05 04:47:07;;;;;;;13.38;9.68;;;;;;;3.54;84.80;100375.24;2767254;86;21620;-58
2021/03/05 04:51:11;;;;;;;14.90;11.43;;;;;;;3.46;84.46;100377.88;2765775;86;21680;-59
2021/03/05 04:55:15;;;;;;;19.02;9.98;;;;;;;3.35;84.52;100384.99;2766669;86;21167;-60
2021/03/05 04:59:18;;;;;;;8.95;5.50;;;;;;;3.19;85.17;100389.69;2768868;86;21158;-61
2021/03/05 05:03:22;;;;;;;9.48;5.17;;;;;;;2.96;85.74;100398.69;2758407;86;21149;-59
2021/03/05 05:07:25;;;;;;;10.58;6.65;;;;;;;2.91;86.72;100392.34;2764662;86;21138;-60
2021/03/05 05:11:29;;;;;;;14.60;7.15;;;;;;;2.86;87.33;100396.97;2756402;86;22285;-61
2021/03/05 05:15:32;;;;;;;14.35;8.40;;;;;;;2.83;87.40;100401.89;2758960;86;21146;-59
2021/03/05 05:19:35;;;;;;;9.78;6.78;;;;;;;2.77;87.80;100410.56;2767353;85;21189;-60
2021/03/05 05:23:39;;;;;;;13.32;5.83;;;;;;;2.79;88.07;100412.65;2760468;86;21580;-60
2021/03/05 05:27:42;;;;;;;6.10;4.78;;;;;;;2.78;88.11;100422.77;2764976;86;21604;-60
2021/03/05 05:31:45;;;;;;;12.25;6.12;;;;;;;2.76;87.98;100423.31;2767495;86;21198;-61
2021/03/05 05:35:48;;;;;;;6.47;5.67;;;;;;;2.74;87.88;100440.89;2768782;86;21138;-60
2021/03/05 05:39:52;;;;;;;9.43;7.50;;;;;;;2.74;87.47;100443.52;2768500;86;21157;-59
2021/03/05 05:43:55;;;;;;;11.45;5.87;;;;;;;2.75;87.27;100454.41;2775170;84;21650;-60
2021/03/05 05:48:00;;;;;;;12.98;7.42;;;;;;;2.78;87.28;100455.13;2778432;85;21142;-59
2021/03/05 05:52:05;;;;;;;11.70;7.33;;;;;;;2.83;86.98;100459.70;2770790;85;21148;-60
2021/03/05 05:56:13;;;;;;;14.80;7.37;;;;;;;2.84;86.49;100473.70;2751899;86;21163;-61
2021/03/05 06:00:18;;;;;;;15.80;8.33;;;;;;;2.85;85.97;100478.03;2777798;85;21162;-60
2021/03/05 06:04:22;;;;;;;20.90;10.93;;;;;;;2.82;85.38;100478.18;2778761;85;21146;-60
2021/03/05 06:08:29;;;;;;;;;;;;;;;2.84;84.83;100478.95;2781131;85;21130;-60
2021/03/05 06:12:32;;;;;;;18.62;10.15;;;;;;;2.87;84.93;100493.27;2778398;85;20210;-59
2021/03/05 06:16:38;;;;;;;18.32;12.40;;;;;;;2.92;84.59;100507.52;2778511;85;21130;-60
2021/03/05 06:20:45;;;;;;;17.37;10.00;;;;;;;2.95;84.34;100510.86;2776003;85;21186;-61
2021/03/05 06:24:50;;;;;;;17.02;11.12;;;;;;;2.95;84.12;100516.56;2778440;85;22178;-59
2021/03/05 06:29:06;;;;;;;18.23;13.28;;;;;;;3.03;84.40;100531.98;2778542;85;21170;-60
2021/03/05 06:33:32;;;;;;;26.33;13.05;;;;;;;3.11;84.55;100546.91;2777951;85;21157;-61
2021/03/05 06:37:46;;;;;;;19.12;13.90;;;;;;;3.20;84.48;100550.89;2778795;85;21142;-60
2021/03/05 06:42:13;;;;;;;16.90;12.55;;;;;;;3.27;84.03;100569.42;2773774;85;21165;-61
2021/03/05 06:46:39;;;;;;;19.65;11.73;;;;;;;3.34;84.28;100576.09;2769019;86;21172;-59
2021/03/05 06:50:43;;;;;;;17.27;12.23;;;;;;;3.38;84.06;100586.84;2767289;85;21205;-60
2021/03/05 06:54:49;;;;;;;19.40;14.28;;;;;;;3.45;84.07;100595.78;2765392;86;21181;-60
2021/03/05 06:59:10;;;;;;;21.85;14.18;;;;;;;3.51;83.87;100606.84;2766980;86;21638;-61
2021/03/05 07:03:23;;;;;;;20.37;11.10;;;;;;;3.54;83.19;100617.69;2767058;86;21217;-60
2021/03/05 07:07:28;;;;;;;20.02;12.68;;;;;;;3.52;82.72;100626.95;2766869;86;21240;-59
2021/03/05 07:11:35;;;;;;;15.72;10.93;;;;;;;3.53;82.52;100635.23;2762920;85;21189;-61
2021/03/05 07:15:59;;;;;;;15.63;10.05;;;;;;;3.53;82.38;100637.87;2723878;86;21205;-61
2021/03/05 07:20:08;;;;;;;17.00;12.53;;;;;;;3.47;81.62;100643.91;2723819;86;21652;-61
2021/03/05 07:24:15;;;;;;;16.00;9.40;;;;;;;3.38;81.61;100668.37;2737929;86;21136;-60
2021/03/05 07:28:19;;;;;;;15.40;10.32;;;;;;;3.36;82.27;100670.70;2746712;86;21195;-60
2021/03/05 07:32:26;;;;;;;20.20;11.20;;;;;;;3.43;82.01;100673.43;2746814;86;21184;-59
2021/03/05 07:36:34;;;;;;;11.85;9.13;;;;;;;3.49;82.29;100675.77;2745900;86;21641;-62
2021/03/05 07:40:39;;;;;;;7.28;5.65;;;;;;;3.50;81.45;100685.84;2747375;86;21190;-61
2021/03/05 07:44:42;;;;;;;16.12;5.83;;;;;;;3.40;79.01;100707.77;2765161;85;21560;-59
2021/03/05 07:48:48;;;;;;;10.10;6.10;;;;;;;3.27;78.42;100706.15;2778675;85;21145;-60
2021/03/05 07:52:52;;;;;;;9.13;7.15;;;;;;;3.22;78.61;100706.34;2778713;85;21173;-61
2021/03/05 07:56:55;;;;;;;11.15;7.83;;;;;;;3.27;79.00;100717.98;2778639;85;21149;-61
2021/03/05 08:00:58;;;;;;;9.35;5.03;;;;;;;3.34;78.78;100718.53;2778198;85;22368;-60
2021/03/05 08:05:04;;;;;;;5.58;4.45;;;;;;;3.60;77.96;100729.20;2778570;85;21158;-59
2021/03/05 08:09:15;;;;;;;10.35;7.00;;;;;;;3.61;76.98;100732.22;2777787;85;21596;-60
2021/03/05 08:18:05;;;;;;;13.95;4.33;;;;;;;3.48;75.32;100740.30;2773271;85;21170;-60
2021/03/05 08:22:08;;;;;;;9.65;4.95;;;;;;;3.38;74.63;100746.43;2746044;85;21209;-60
2021/03/05 08:26:11;;;;;;;11.60;7.03;;;;;;;3.43;75.72;100744.44;2778579;85;21656;-59
2021/03/05 08:30:17;;;;;;;9.90;5.53;;;;;;;3.52;74.86;100758.95;2778817;85;21149;-62
2021/03/05 08:34:26;;;;;;;5.17;3.77;;;;;;;3.65;74.73;100761.88;2778241;85;21133;-61
2021/03/05 08:38:36;;;;;;;11.57;3.67;;;;;;;3.78;73.91;100773.57;2778119;85;21645;-60
2021/03/05 08:42:42;;;;;;;9.55;4.92;;;;;;;3.78;71.43;100776.65;2777429;85;21186;-61
2021/03/05 08:46:47;;;;;;;5.05;3.60;;;;;;;3.71;71.49;100786.59;2767356;85;21166;-60
2021/03/05 08:50:50;;;;;;;6.30;3.25;;;;;;;3.69;71.87;100779.23;2764802;85;21181;-60
2021/03/05 08:54:54;;;;;;;6.15;3.52;;;;;;;3.68;71.37;100777.08;2762111;86;21197;-59
2021/03/05 08:59:05;;;;;;;7.62;4.08;;;;;;;3.90;73.35;100785.76;2745778;86;21149;-59
2021/03/05 09:03:17;;;;;;;13.60;5.33;;;;;;;4.04;70.15;100795.20;2766961;85;21158;-60
2021/03/05 09:07:21;;;;;;;6.97;4.35;;;;;;;4.06;70.53;100785.45;2723566;86;21213;-61
2021/03/05 09:11:24;;;;;;;7.15;4.40;;;;;;;4.24;70.30;100795.59;2763703;86;21146;-61
2021/03/05 09:15:48;;;;;;;9.73;4.20;;;;;;;4.40;69.62;100793.08;2767177;86;21174;-61
2021/03/05 09:19:51;;;;;;;3.45;2.60;;;;;;;4.57;68.78;100798.84;2764789;86;21181;-59
2021/03/05 09:23:57;;;;;;;5.15;2.77;;;;;;;4.70;67.26;100798.25;2767175;85;21600;-60
2021/03/05 09:28:00;;;;;;;4.70;2.10;;;;;;;4.85;68.39;100797.95;2766482;85;21189;-60
2021/03/05 09:32:04;;;;;;;4.53;2.25;;;;;;;5.06;68.42;100801.75;2764834;85;21177;-60
2021/03/05 09:36:13;;;;;;;3.83;1.95;;;;;;;5.14;65.40;100795.16;2741988;86;28521;-60
2021/03/05 09:40:17;;;;;;;5.62;2.55;;;;;;;5.15;63.70;100799.51;2768719;86;21138;-61
2021/03/05 09:44:47;;;;;;;3.42;1.60;;;;;;;5.08;63.97;100803.84;2898676;81;21656;-60
2021/03/05 09:48:53;;;;;;;4.00;1.57;;;;;;;5.08;64.52;100803.84;2874206;81;21440;-59
2021/03/05 09:52:57;;;;;;;4.17;1.75;;;;;;;5.26;63.60;100806.87;2887324;81;21207;-59
2021/03/05 09:57:00;;;;;;;2.98;1.55;;;;;;;5.45;64.36;100815.16;2868577;81;21677;-61
2021/03/05 10:01:05;;;;;;;3.22;1.00;;;;;;;5.34;63.79;100826.27;2874686;81;21161;-60
2021/03/05 10:05:10;;;;;;;2.15;1.50;;;;;;;5.14;61.43;100824.66;2906765;81;21173;-59
2021/03/05 10:09:35;;;;;;;2.98;1.55;;;;;;;5.28;63.95;100827.91;2880005;81;21616;-60
2021/03/05 10:13:56;;;;;;;2.12;1.45;;;;;;;5.60;62.14;100838.59;2849509;82;21185;-61
2021/03/05 10:18:01;;;;;;;2.90;2.10;;;;;;;5.75;63.01;100841.34;2840733;82;22365;-61
2021/03/05 10:22:28;;;;;;;2.50;1.47;;;;;;;5.83;60.91;100845.77;2792486;84;21180;-60
2021/03/05 10:26:31;;;;;;;9.45;5.35;;;;;;;5.93;59.50;100848.77;2762108;85;21427;-60
2021/03/05 10:30:34;;;;;;;8.03;2.75;;;;;;;5.92;60.97;100869.52;2757723;85;21557;-60
2021/03/05 10:34:37;;;;;;;4.67;2.83;;;;;;;5.77;60.07;100869.38;2707135;87;21664;-60
2021/03/05 10:38:43;;;;;;;3.37;2.10;;;;;;;5.63;60.66;100875.38;2728482;87;21222;-60
2021/03/05 10:42:46;;;;;;;3.67;3.15;;;;;;;5.54;60.99;100884.63;2726172;87;21177;-61
2021/03/05 10:46:49;;;;;;;3.65;1.62;;;;;;;5.43;60.73;100892.22;2706207;87;21163;-61
2021/03/05 10:50:53;;;;;;;5.28;2.12;;;;;;;5.30;60.35;100889.35;2715518;86;21198;-60
2021/03/05 10:54:56;;;;;;;2.27;1.70;;;;;;;5.21;60.51;100888.03;2716947;86;21644;-62
2021/03/05 10:59:01;;;;;;;2.35;1.65;;;;;;;5.25;58.59;100881.66;2720145;86;21205;-60
2021/03/05 11:03:05;;;;;;;1.57;1.47;;;;;;;5.54;58.86;100891.67;2713330;87;21338;-61
2021/03/05 11:07:09;;;;;;;2.25;1.40;;;;;;;5.75;56.56;100889.73;2699707;87;21170;-61
2021/03/05 11:11:12;;;;;;;3.77;1.00;;;;;;;5.92;56.58;100893.28;2722571;86;21676;-61
2021/03/05 11:15:19;;;;;;;3.10;1.60;;;;;;;6.02;57.82;100899.80;2711965;87;21199;-61
2021/03/05 11:19:23;;;;;;;7.37;2.40;;;;;;;5.88;56.83;100903.59;2705076;87;21149;-62
2021/03/05 11:23:27;;;;;;;3.92;2.22;;;;;;;5.78;56.87;100897.94;2685229;87;21183;-62
2021/03/05 11:27:32;;;;;;;3.17;1.82;;;;;;;5.95;57.94;100903.67;2710676;86;21147;-61
2021/03/05 11:31:34;;;;;;;3.12;1.00;;;;;;;6.17;56.71;100901.24;2707022;86;21223;-61
2021/03/05 11:35:38;;;;;;;3.87;1.65;;;;;;;6.19;55.43;100911.25;2712109;87;21245;-63
2021/03/05 11:39:41;;;;;;;1.55;1.10;;;;;;;6.10;55.44;100910.83;2706994;87;21153;-61
2021/03/05 11:43:51;;;;;;;2.05;1.57;;;;;;;5.96;54.93;100917.27;2713731;86;21185;-62
2021/03/05 11:47:55;;;;;;;2.22;1.65;;;;;;;5.84;54.78;100917.44;2713998;87;21168;-63
2021/03/05 11:51:58;;;;;;;1.90;1.77;;;;;;;5.88;56.41;100920.75;2707298;87;21201;-62
2021/03/05 11:56:03;;;;;;;2.08;0.80;;;;;;;6.11;57.52;100911.21;2697839;87;21201;-62
2021/03/05 12:00:09;;;;;;;4.35;1.80;;;;;;;6.17;56.03;100927.17;2679037;87;21639;-63
2021/03/05 12:04:12;;;;;;;1.12;0.93;;;;;;;6.25;52.89;100921.48;2714762;87;21184;-62
2021/03/05 12:08:15;;;;;;;3.40;1.50;;;;;;;6.25;53.71;100921.48;2714100;87;21181;-61
2021/03/05 12:12:19;;;;;;;3.45;1.80;;;;;;;6.21;53.35;100926.11;2714185;87;21164;-61
2021/03/05 12:16:21;;;;;;;6.40;1.72;;;;;;;6.10;52.95;100935.92;2714231;87;21185;-63
2021/03/05 12:20:25;;;;;;;7.40;1.67;;;;;;;6.04;53.04;100942.83;2703149;86;21228;-63
2021/03/05 12:24:28;;;;;;;4.72;1.62;;;;;;;5.94;53.84;100942.90;2685379;86;21573;-64
2021/03/05 12:28:30;;;;;;;2.87;1.92;;;;;;;5.92;54.00;100950.05;2694671;86;21159;-64
2021/03/05 12:32:35;;;;;;;2.52;1.87;;;;;;;5.91;53.09;100949.67;2674047;88;21217;-63
2021/03/05 12:36:39;;;;;;;3.47;1.32;;;;;;;5.94;53.57;100943.73;2677069;87;21683;-64
2021/03/05 12:40:43;;;;;;;2.08;1.62;;;;;;;6.09;53.41;100951.84;2704306;87;21208;-65
2021/03/05 12:44:45;;;;;;;4.83;1.27;;;;;;;6.26;53.40;100946.97;2713623;86;21181;-67
2021/03/05 12:48:48;;;;;;;4.55;1.30;;;;;;;6.23;52.60;100951.10;2703101;87;21184;-65
2021/03/05 12:52:51;;;;;;;3.30;1.57;;;;;;;6.05;51.97;100951.13;2689604;88;21620;-63
2021/03/05 12:56:55;;;;;;;2.70;1.25;;;;;;;5.99;54.50;100964.19;2700698;87;21208;-65
2021/03/05 13:00:59;;;;;;;3.50;1.42;;;;;;;5.94;53.93;100965.34;2682698;87;21201;-66
2021/03/05 13:05:02;;;;;;;3.08;1.45;;;;;;;5.92;54.57;100972.02;2698817;87;21264;-65
2021/03/05 13:09:05;;;;;;;1.77;1.60;;;;;;;6.02;54.78;100964.98;2713417;87;21643;-64
2021/03/05 13:13:08;;;;;;;1.80;1.52;;;;;;;6.10;53.80;100966.75;2713348;87;21192;-65
2021/03/05 13:17:11;;;;;;;1.42;0.98;;;;;;;6.10;51.41;100979.50;2713486;87;21153;-66
2021/03/05 13:21:16;;;;;;;4.28;1.57;;;;;;;6.11;53.57;100972.42;2713539;87;21165;-64
2021/03/05 13:25:30;;;;;;;1.07;0.90;;;;;;;6.17;50.65;100981.81;2709555;87;21161;-66
2021/03/05 13:29:25;;;;;;;;;;;;;;;6.24;51.79;100988.48;2706542;88;21190;-63
2021/03/05 13:33:28;;;;;;;2.30;1.47;;;;;;;6.26;50.83;100987.92;2705168;88;20175;-65
2021/03/05 13:37:32;;;;;;;1.35;0.85;;;;;;;6.23;52.40;100994.24;2705077;87;22040;-64
2021/03/05 13:41:35;;;;;;;1.87;1.30;;;;;;;6.26;51.64;100998.49;2704977;87;21173;-63
2021/03/05 13:45:40;;;;;;;1.37;1.27;;;;;;;6.25;51.56;100993.69;2705331;86;21209;-66
2021/03/05 13:49:44;;;;;;;;;;;;;;;6.27;52.10;101006.35;2696696;87;21185;-62
2021/03/05 13:53:47;;;;;;;2.12;1.65;;;;;;;6.25;52.41;100996.78;2655194;89;20419;-66
2021/03/05 13:57:50;;;;;;;4.50;1.92;;;;;;;6.23;52.52;101005.27;2679016;88;21676;-63
2021/03/05 14:01:54;;;;;;;2.55;1.30;;;;;;;6.24;53.05;101005.20;2672195;87;21218;-67
2021/03/05 14:05:57;;;;;;;11.95;1.92;;;;;;;6.19;53.04;101006.36;2703016;88;21635;-64
2021/03/05 14:10:00;;;;;;;3.77;2.30;;;;;;;6.07;51.31;101006.05;2677413;87;21483;-63
2021/03/05 14:14:03;;;;;;;1.70;1.42;;;;;;;5.93;53.68;101023.90;2699129;88;21212;-64
2021/03/05 14:18:07;;;;;;;3.83;1.75;;;;;;;5.91;53.87;101018.33;2669310;88;21202;-62
2021/03/05 14:22:10;;;;;;;3.75;2.45;;;;;;;5.79;54.99;101027.69;2645723;90;21181;-63
2021/03/05 14:26:14;;;;;;;2.87;1.75;;;;;;;5.95;55.16;101035.72;2645710;90;21205;-65
2021/03/05 14:30:20;;;;;;;4.33;1.70;;;;;;;6.11;54.06;101036.69;2645737;90;21194;-65
2021/03/05 14:34:23;;;;;;;2.47;1.55;;;;;;;5.99;53.37;101039.45;2645521;90;21239;-63
2021/03/05 14:38:27;;;;;;;3.55;1.35;;;;;;;6.05;53.82;101042.73;2649291;88;21191;-64
2021/03/05 14:42:30;;;;;;;1.37;1.27;;;;;;;6.19;54.30;101036.75;2690300;86;21624;-65
2021/03/05 14:46:32;;;;;;;3.25;1.32;;;;;;;6.28;52.12;101038.90;2693517;86;21179;-64
2021/03/05 14:50:37;;;;;;;4.50;1.50;;;;;;;6.40;51.77;101036.95;2695551;87;21252;-64
2021/03/05 14:54:42;;;;;;;3.35;1.90;;;;;;;6.56;52.66;101033.50;2683692;88;21233;-64
2021/03/05 14:58:45;;;;;;;1.82;1.00;;;;;;;6.67;51.90;101039.54;2685735;87;21640;-64
2021/03/05 15:02:49;;;;;;;4.80;1.35;;;;;;;6.71;53.37;101047.23;2689009;87;21170;-63
2021/03/05 15:06:53;;;;;;;6.08;1.55;;;;;;;6.51;51.71;101047.44;2704507;87;21170;-64
2021/03/05 15:10:56;;;;;;;3.70;1.50;;;;;;;6.30;52.77;101055.55;2703370;87;21217;-62
2021/03/05 15:14:59;;;;;;;2.80;1.60;;;;;;;6.23;53.65;101063.39;2696306;86;21596;-63
2021/03/05 15:19:06;;;;;;;2.25;1.77;;;;;;;6.17;53.19;101073.80;2678786;88;21593;-63
2021/03/05 15:23:09;;;;;;;2.08;1.47;;;;;;;6.04;53.88;101088.09;2678433;88;21203;-65
2021/03/05 15:27:12;;;;;;;8.50;4.90;;;;;;;5.86;55.38;101114.93;2673333;87;21218;-65
2021/03/05 15:31:15;;;;;;;6.97;4.58;;;;;;;5.65;57.89;101114.17;2666151;88;21652;-65
2021/03/05 15:35:18;;;;;;;4.33;2.85;;;;;;;5.31;59.96;101114.47;2648647;89;21201;-66
2021/03/05 15:39:21;;;;;;;4.85;2.47;;;;;;;5.07;59.72;101105.41;2647989;89;22327;-65
2021/03/05 15:43:25;;;;;;;4.83;2.55;;;;;;;5.00;59.73;101103.52;2644450;88;21628;-64
2021/03/05 15:47:29;;;;;;;2.90;2.00;;;;;;;4.96;58.19;101117.77;2666593;89;21196;-64
2021/03/05 15:51:33;;;;;;;2.27;1.98;;;;;;;4.95;59.19;101119.56;2666422;88;21186;-65
2021/03/05 15:55:37;;;;;;;4.60;2.25;;;;;;;5.02;59.09;101127.19;2666361;88;21222;-63
2021/03/05 15:59:41;;;;;;;5.20;3.90;;;;;;;5.10;59.07;101119.77;2666377;88;21169;-65
2021/03/05 16:03:43;;;;;;;7.42;4.97;;;;;;;5.14;59.02;101131.44;2666281;89;21577;-64
2021/03/05 16:07:47;;;;;;;4.80;3.42;;;;;;;5.18;59.25;101130.84;2666420;88;21193;-64
2021/03/05 16:11:50;;;;;;;3.90;2.65;;;;;;;5.20;59.88;101139.98;2666424;89;21161;-63
2021/03/05 16:15:53;;;;;;;6.47;3.67;;;;;;;5.22;60.58;101141.64;2666367;89;21205;-65
2021/03/05 16:19:56;;;;;;;6.33;3.15;;;;;;;5.18;59.78;101161.19;2666456;89;21182;-65
2021/03/05 16:24:00;;;;;;;8.58;4.25;;;;;;;5.09;60.08;101172.13;2631797;88;21660;-64
2021/03/05 16:28:04;;;;;;;4.10;2.45;;;;;;;4.98;61.52;101177.44;2659385;89;21197;-63
2021/03/05 16:32:08;;;;;;;3.00;1.95;;;;;;;4.83;61.93;101187.33;2659525;89;21132;-63
2021/03/05 16:36:13;;;;;;;3.40;2.17;;;;;;;4.67;61.12;101205.11;2629942;90;21223;-63
2021/03/05 16:40:16;;;;;;;5.92;2.70;;;;;;;4.55;62.36;101212.23;2659829;89;21225;-64
2021/03/05 16:44:19;;;;;;;6.95;3.95;;;;;;;4.39;64.71;101215.50;2659649;88;21193;-62
2021/03/05 16:48:22;;;;;;;7.58;3.15;;;;;;;4.20;65.95;101225.91;2659710;88;21154;-64
2021/03/05 16:52:25;;;;;;;3.70;3.30;;;;;;;4.02;67.01;101223.56;2659507;89;21209;-63
2021/03/05 16:56:28;;;;;;;6.12;3.98;;;;;;;3.81;68.56;101226.11;2659471;89;21635;-63
2021/03/05 17:00:32;;;;;;;12.03;7.62;;;;;;;3.66;69.77;101236.77;2667209;87;21183;-65
2021/03/05 17:04:36;;;;;;;5.42;4.62;;;;;;;3.54;70.69;101232.83;2675066;88;21197;-63
2021/03/05 17:08:40;;;;;;;10.50;6.95;;;;;;;3.50;71.20;101239.09;2695158;88;21164;-63
2021/03/05 17:12:44;;;;;;;11.53;7.60;;;;;;;3.49;71.05;101233.44;2675882;88;21193;-64
2021/03/05 17:16:47;;;;;;;8.40;6.55;;;;;;;3.50;71.45;101253.56;2694808;88;21159;-65
2021/03/05 17:20:51;;;;;;;38.05;21.20;;;;;;;3.49;72.39;101257.11;2695202;88;21144;-64
2021/03/05 17:24:53;;;;;;;19.02;13.40;;;;;;;3.54;70.88;101255.19;2686547;87;21231;-64
2021/03/05 17:28:56;;;;;;;24.67;15.32;;;;;;;3.50;70.71;101259.30;2681896;88;21167;-63
2021/03/05 17:32:59;;;;;;;12.78;7.47;;;;;;;3.50;71.01;101269.34;2682139;88;21186;-64
2021/03/05 17:37:04;;;;;;;6.55;3.42;;;;;;;3.48;70.91;101265.92;2682156;88;21202;-64
2021/03/05 17:41:08;;;;;;;5.00;3.70;;;;;;;3.54;71.73;101285.45;2682122;88;21618;-63
2021/03/05 17:45:13;;;;;;;9.63;6.45;;;;;;;3.60;71.69;101276.45;2681908;88;22272;-63
2021/03/05 17:49:16;;;;;;;8.58;7.78;;;;;;;3.51;71.28;101284.22;2682198;88;21212;-63
2021/03/05 17:53:20;;;;;;;5.35;4.60;;;;;;;3.48;71.22;101301.43;2682099;88;21211;-65
2021/03/05 17:57:23;;;;;;;17.70;10.40;;;;;;;3.28;73.27;101312.20;2681700;86;21205;-63
2021/03/05 18:01:26;;;;;;;13.65;9.93;;;;;;;2.99;74.17;101314.08;2679965;88;21192;-64
2021/03/05 18:05:29;;;;;;;16.35;9.75;;;;;;;2.79;75.15;101321.29;2637593;90;21212;-63
2021/03/05 18:09:32;;;;;;;14.85;7.85;;;;;;;2.63;75.76;101320.94;2679791;88;21705;-63
2021/03/05 18:13:35;;;;;;;10.55;5.95;;;;;;;2.51;76.23;101326.56;2704359;87;21213;-63
2021/03/05 18:17:40;;;;;;;17.95;9.13;;;;;;;2.42;76.60;101331.22;2725829;87;21506;-63
2021/03/05 18:21:45;;;;;;;15.38;8.33;;;;;;;2.36;76.98;101330.10;2725965;87;21156;-63
2021/03/05 18:25:49;;;;;;;7.72;6.92;;;;;;;2.28;77.31;101330.33;2725823;87;21161;-63
2021/03/05 18:29:53;;;;;;;18.42;8.95;;;;;;;2.17;77.70;101335.03;2726049;87;21169;-63
2021/03/05 18:33:57;;;;;;;10.45;8.23;;;;;;;2.13;77.92;101338.19;2723917;87;22272;-64
2021/03/05 18:38:00;;;;;;;24.75;13.35;;;;;;;2.17;78.41;101342.91;2725815;87;21204;-61
2021/03/05 18:42:06;;;;;;;26.45;17.35;;;;;;;2.19;78.98;101349.44;2723353;87;21160;-63
2021/03/05 18:46:09;;;;;;;38.02;21.05;;;;;;;2.18;79.24;101342.00;2725643;87;21180;-64
2021/03/05 18:50:13;;;;;;;27.77;16.85;;;;;;;2.18;79.62;101352.50;2716860;87;21185;-62
2021/03/05 18:54:16;;;;;;;21.90;15.72;;;;;;;2.17;80.11;101357.81;2722475;87;21200;-64
2021/03/05 18:58:19;;;;;;;16.85;11.63;;;;;;;2.26;79.91;101360.16;2724501;87;21510;-63
2021/03/05 19:02:24;;;;;;;14.87;10.20;;;;;;;2.29;79.47;101362.68;2702623;87;21185;-62
2021/03/05 19:06:28;;;;;;;16.85;11.00;;;;;;;2.35;79.05;101363.80;2702635;87;21177;-65
2021/03/05 19:10:33;;;;;;;10.18;8.30;;;;;;;2.38;78.86;101375.98;2667436;88;21168;-62